Latest Coastal Weather Observations for Gold Coast Seaway

IDQ60701

Issued at 12:52 pm EST Friday 17 September 2021 (issued every 10 minutes, with the page automatically refreshed every 10 minutes)

About coastal observations | Map of coastal stations | Coastal observations for QLD | Marine services | Other Formats
Station Details ID: 040764 Name: GOLD COAST SEAWAY Lat: -27.94 Lon: 153.43 Height: 2.98 m
Data from the previous 72 hours. | See also: Recent months at Gold Coast Seaway
Date/Time
EST
Wind Sea
Height
m
Swell Vis
km
Cloud Weather Temp
°C
Press
MSL
hPa
Rain since
9am
mm
Dir  Spd
kts
Gust
kts
Height
m
Period
s
Dir
17/12:30pm E 9 12 - - - - - - - 21.7 1022.0 0.0
17/12:00pm E 10 12 - - - - - - - 21.4 1022.4 0.0
17/11:30am E 10 12 - - - - - - - 21.1 1022.7 0.0
17/11:00am ESE 10 12 - - - - - - - 21.2 1023.1 0.0
17/10:30am SE 8 11 - - - - - - - 21.4 1023.6 0.0
17/10:00am SE 9 11 - - - - - - - 21.9 1023.8 0.0
17/09:30am SSE 7 10 - - - - - - - 21.4 1023.9 0.0
17/09:00am SSE 7 10 - - - - - - - 21.2 1023.9 0.0
17/08:30am SSE 6 9 - - - - - - - 20.2 1023.7 0.0
17/08:00am SSW 7 10 - - - - - - - 18.9 1023.6 0.0
17/07:30am SW 5 8 - - - - - - - 17.5 1023.4 0.0
17/07:00am WSW 4 7 - - - - - - - 15.7 1023.1 0.0
17/06:30am SW 4 6 - - - - - - - 14.4 1022.7 0.0
17/06:00am SW 5 7 - - - - - - - 13.3 1022.4 0.0
17/05:30am SW 5 6 - - - - - - - 13.2 1021.9 0.0
17/05:00am SW 5 7 - - - - - - - 13.7 1021.7 0.0
17/04:30am SW 6 8 - - - - - - - 13.6 1021.3 0.0
17/04:00am WSW 5 7 - - - - - - - 14.0 1021.3 0.0
17/03:30am SW 5 7 - - - - - - - 14.1 1021.1 0.0
17/03:00am SW 5 7 - - - - - - - 14.2 1021.1 0.0
17/02:30am SW 5 7 - - - - - - - 13.9 1021.3 0.0
17/02:00am SW 6 7 - - - - - - - 14.1 1021.4 0.0
17/01:30am SW 5 7 - - - - - - - 14.2 1021.5 0.0
17/01:00am SW 5 8 - - - - - - - 14.4 1021.6 0.0
17/12:30am SW 6 7 - - - - - - - 14.6 1021.8 0.0
17/12:00am SW 5 7 - - - - - - - 14.6 1021.9 0.0
 
Date/Time
EST
Wind Sea
Height
m
Swell Vis
km
Cloud Weather Temp
°C
Press
MSL
hPa
Rain since
9am
mm
Dir  Spd
kts
Gust
kts
Height
m
Period
s
Dir
16/11:30pm SW 5 7 - - - - - - - 14.9 1022.0 0.0
16/11:00pm SW 6 9 - - - - - - - 15.3 1022.0 0.0
16/10:30pm SSW 7 10 - - - - - - - 15.6 1021.8 0.0
16/10:00pm SSW 7 12 - - - - - - - 15.6 1021.7 0.0
16/09:30pm SSW 7 11 - - - - - - - 15.6 1021.6 0.0
16/09:00pm S 7 12 - - - - - - - 15.6 1021.5 0.0
16/08:30pm S 7 12 - - - - - - - 16.0 1021.4 0.0
16/08:00pm S 9 13 - - - - - - - 16.4 1021.2 0.0
16/07:30pm S 10 14 - - - - - - - 16.8 1020.9 0.0
16/07:00pm SSE 13 19 - - - - - - - 17.4 1020.4 0.0
16/06:30pm SSE 16 21 - - - - - - - 17.5 1020.0 0.0
16/06:00pm SSE 19 24 - - - - - - - 17.9 1019.6 0.0
16/05:30pm SSE 18 23 - - - - - - - 17.8 1019.4 0.0
16/05:00pm SE 19 25 - - - - - - - 18.2 1019.3 0.0
16/04:30pm SE 22 26 - - - - - - - 18.5 1019.0 0.0
16/04:00pm SE 22 27 - - - - - - - 18.4 1018.7 0.0
16/03:30pm SE 23 28 - - - - - - - 19.4 1018.6 0.0
16/03:00pm SE 20 25 - - - - - - - 19.6 1018.6 0.0
16/02:30pm SE 21 25 - - - - - - - 19.4 1018.6 0.0
16/02:00pm SE 21 25 - - - - - - - 19.6 1018.6 0.0
16/01:30pm ESE 20 24 - - - - - - - 19.2 1018.8 0.0
16/01:00pm ESE 19 22 - - - - - - - 20.0 1018.9 0.0
16/12:30pm SE 17 20 - - - - - - - 20.1 1019.3 0.0
16/12:00pm SE 16 18 - - - - - - - 20.8 1019.6 0.0
16/11:30am SE 15 18 - - - - - - - 20.6 1020.0 0.0
16/11:00am SE 13 15 - - - - - - - 20.9 1020.5 0.0
16/10:30am SSE 9 12 - - - - - - - 21.3 1021.0 0.0
16/10:00am SSE 10 15 - - - - - - - 20.7 1021.4 0.0
16/09:30am SSE 10 14 - - - - - - - 20.6 1021.7 0.0
16/09:00am SSE 10 15 - - - - - - - 19.7 1021.7 0.0
16/08:30am S 7 10 - - - - - - - 19.5 1021.7 0.0
16/08:00am SSW 9 13 - - - - - - - 18.3 1021.6 0.0
16/07:30am SSW 7 11 - - - - - - - 17.5 1021.4 0.0
16/07:00am SSW 6 9 - - - - - - - 16.1 1021.3 0.0
16/06:30am SSW 6 9 - - - - - - - 15.1 1020.9 0.0
16/06:00am SSW 6 9 - - - - - - - 13.8 1020.4 0.0
16/05:30am S 7 11 - - - - - - - 13.7 1020.0 0.0
16/05:00am S 6 10 - - - - - - - 13.6 1019.8 0.0
16/04:30am S 6 11 - - - - - - - 14.0 1019.5 0.0
16/04:00am S 7 11 - - - - - - - 14.3 1019.3 0.0
16/03:30am S 7 14 - - - - - - - 14.4 1019.2 0.0
16/03:00am SW 6 9 - - - - - - - 14.9 1019.4 0.0
16/02:30am SSW 3 7 - - - - - - - 14.9 1019.4 0.0
16/02:00am SSW 3 8 - - - - - - - 14.2 1019.4 0.0
16/01:30am SSW 5 8 - - - - - - - 15.3 1019.6 0.0
16/01:00am SSW 4 7 - - - - - - - 16.0 1019.8 0.0
16/12:30am SSW 6 12 - - - - - - - 16.2 1020.0 0.0
16/12:00am S 7 11 - - - - - - - 16.4 1020.2 0.0
 
Date/Time
EST
Wind Sea
Height
m
Swell Vis
km
Cloud Weather Temp
°C
Press
MSL
hPa
Rain since
9am
mm
Dir  Spd
kts
Gust
kts
Height
m
Period
s
Dir
15/11:30pm S 7 11 - - - - - - - 15.8 1020.1 0.0
15/11:00pm SSW 8 12 - - - - - - - 15.9 1019.8 0.0
15/10:30pm S 8 12 - - - - - - - 16.1 1019.9 0.0
15/10:00pm S 10 15 - - - - - - - 16.3 1019.8 0.0
15/09:30pm S 13 19 - - - - - - - 16.4 1019.7 0.0
15/09:00pm S 12 21 - - - - - - - 16.6 1019.8 0.0
15/08:30pm S 13 20 - - - - - - - 16.9 1019.7 0.0
15/08:00pm S 13 18 - - - - - - - 16.9 1019.6 0.0
15/07:30pm S 14 21 - - - - - - - 17.1 1019.5 0.0
15/07:00pm SSE 15 21 - - - - - - - 17.4 1019.2 0.0
15/06:30pm SSE 19 24 - - - - - - - 17.7 1018.7 0.0
15/06:00pm SSE 20 27 - - - - - - - 17.9 1018.5 0.0
15/05:30pm SSE 23 29 - - - - - - - 18.1 1018.0 0.0
15/05:00pm SSE 22 29 - - - - - - - 18.6 1017.6 0.0
15/04:47pm SSE 20 30 - - - - - - - 18.8 1017.5 0.0
15/04:30pm SSE 23 29 - - - - - - - 19.0 1017.2 0.0
15/04:00pm SE 22 28 - - - - - - - 18.8 1017.2 0.0
15/03:30pm SE 23 27 - - - - - - - 18.7 1017.1 0.0
15/03:00pm SE 22 28 - - - - - - - 19.8 1017.0 0.0
15/02:30pm SE 21 25 - - - - - - - 20.0 1017.1 0.0
15/02:00pm SE 20 25 - - - - - - - 20.1 1017.4 0.0
15/01:30pm SE 18 22 - - - - - - - 21.0 1017.7 0.0
15/01:00pm S 9 14 - - - - - - - 22.9 1017.9 0.0
15/12:30pm SSE 11 16 - - - - - - - 22.3 1018.0 0.0
15/12:00pm SSE 11 16 - - - - - - - 21.9 1018.3 0.0
15/11:30am S 11 17 - - - - - - - 21.9 1018.7 0.0
15/11:00am S 10 16 - - - - - - - 21.2 1019.2 0.0
15/10:30am SSE 12 20 - - - - - - - 20.7 1019.4 0.0
15/10:00am S 12 23 - - - - - - - 20.8 1019.6 0.0
15/09:30am S 11 18 - - - - - - - 19.6 1019.8 0.0
15/09:00am S 12 19 - - - - - - - 19.0 1019.9 0.0
15/08:30am SSW 11 15 - - - - - - - 17.9 1020.1 0.0
15/08:00am SSW 11 16 - - - - - - - 17.3 1020.1 0.0
15/07:30am SW 9 15 - - - - - - - 16.5 1020.0 0.0
15/07:00am SW 9 13 - - - - - - - 15.5 1019.7 0.0
15/06:30am SW 7 12 - - - - - - - 14.6 1019.4 0.0
15/06:00am SSW 7 11 - - - - - - - 13.8 1019.0 0.0
15/05:30am SSW 8 14 - - - - - - - 13.7 1018.7 0.0
15/05:00am SSW 8 13 - - - - - - - 13.8 1018.4 0.0
15/04:30am SSW 6 11 - - - - - - - 13.6 1018.2 0.0
15/04:00am SSW 8 13 - - - - - - - 13.9 1018.0 0.0
15/03:30am SSW 8 15 - - - - - - - 13.7 1017.7 0.0
15/03:00am SSW 6 11 - - - - - - - 13.4 1017.9 0.0
15/02:30am SSW 7 10 - - - - - - - 14.0 1018.2 0.0
15/02:00am SSW 9 13 - - - - - - - 14.3 1018.4 0.0
15/01:30am SSW 8 14 - - - - - - - 14.3 1018.5 0.0
15/01:00am SSW 7 11 - - - - - - - 14.1 1018.8 0.0
15/12:30am SSW 9 14 - - - - - - - 14.6 1019.0 0.0
15/12:00am SSW 7 12 - - - - - - - 14.7 1018.9 0.0
 
Date/Time
EST
Wind Sea
Height
m
Swell Vis
km
Cloud Weather Temp
°C
Press
MSL
hPa
Rain since
9am
mm
Dir  Spd
kts
Gust
kts
Height
m
Period
s
Dir
14/11:30pm SW 9 14 - - - - - - - 15.0 1018.9 0.0
14/11:00pm SW 9 13 - - - - - - - 15.2 1018.8 0.0
14/10:30pm SW 9 16 - - - - - - - 15.5 1018.6 0.0
14/10:00pm SW 8 11 - - - - - - - 15.3 1018.8 0.0
14/09:30pm S 6 8 - - - - - - - 14.1 1018.7 0.0
14/09:00pm SSW 5 7 - - - - - - - 14.8 1018.9 0.0
14/08:30pm SW 5 9 - - - - - - - 15.3 1019.0 0.0
14/08:00pm SSW 6 12 - - - - - - - 15.2 1018.9 0.0
14/07:30pm SSW 9 13 - - - - - - - 15.7 1018.7 0.0
14/07:00pm SSW 8 13 - - - - - - - 15.8 1018.2 0.0
14/06:30pm SSW 10 15 - - - - - - - 15.9 1018.0 0.0
14/06:00pm SSW 11 17 - - - - - - - 16.1 1017.3 0.0
14/05:30pm S 14 22 - - - - - - - 16.9 1016.5 0.0
14/05:17pm SSW 15 25 - - - - - - - 17.3 1016.2 0.0
14/05:00pm S 15 24 - - - - - - - 18.2 1015.6 0.0
14/04:30pm SSW 14 23 - - - - - - - 20.3 1014.6 0.0
14/04:00pm SSW 11 20 - - - - - - - 21.5 1013.9 0.0
14/03:30pm WSW 10 17 - - - - - - - 22.3 1013.6 0.0
14/03:00pm WSW 13 19 - - - - - - - 21.3 1013.4 0.0
14/02:30pm WSW 12 21 - - - - - - - 22.7 1013.2 0.0
14/02:00pm WSW 13 22 - - - - - - - 22.1 1013.3 0.0
14/01:30pm WSW 14 26 - - - - - - - 21.6 1013.4 0.0
14/01:00pm SW 12 21 - - - - - - - 21.9 1013.5 0.0

Other formats

Comma delimited format used in spreadsheet applications
http://www.bom.gov.au/fwo/IDQ60701/IDQ60701.94580.axf

JavaScript Object Notation format (JSON) in row-major order
http://www.bom.gov.au/fwo/IDQ60701/IDQ60701.94580.json

Data quality

Most of these data are generated automatically and are frequently updated. Quality checks on data are not normally performed. It is possible for incorrect values to appear. Refer to information at About Latest Weather Observations and please check the disclaimer before using these data.